Time;durP1;ratioP1;P1;durP2;ratioP2;P2;SDS_P1;SDS_P2;PMS_P1;PMS_P2;Temp;Humidity;BMP_temperature;BMP_pressure;BME280_temperature;BME280_humidity;BME280_pressure;Samples;Min_cycle;Max_cycle;Signal;HPM_P1;HPM_P2
2024/01/14 00:01:46;;;;;;;55.40;23.48;;;;;;;-2.80;100.00;96730.16;4981667;28;20038;-72
2024/01/14 00:04:12;;;;;;;53.90;22.15;;;;;;;-2.85;100.00;96724.81;4976906;28;20116;-73
2024/01/14 00:06:37;;;;;;;53.38;22.40;;;;;;;-2.99;100.00;96727.31;4982839;28;20461;-72
2024/01/14 00:09:03;;;;;;;53.78;22.88;;;;;;;-2.80;100.00;96724.78;4984027;28;20568;-70
2024/01/14 00:11:28;;;;;;;46.47;20.10;;;;;;;-2.71;100.00;96723.09;4979992;28;20513;-71
2024/01/14 00:13:53;;;;;;;53.10;21.45;;;;;;;-2.60;100.00;96727.31;4986121;28;20046;-72
2024/01/14 00:16:19;;;;;;;52.85;22.58;;;;;;;-2.56;100.00;96717.59;4981276;28;20080;-71
2024/01/14 00:18:44;;;;;;;55.72;22.23;;;;;;;-2.73;100.00;96726.06;4985304;28;20721;-71
2024/01/14 00:21:10;;;;;;;51.80;21.05;;;;;;;-2.89;100.00;96717.34;4979964;28;20057;-71
2024/01/14 00:23:35;;;;;;;50.08;21.85;;;;;;;-2.71;100.00;96710.50;4982166;28;20501;-73
2024/01/14 00:26:01;;;;;;;54.72;22.52;;;;;;;-2.64;100.00;96712.88;4981632;28;20043;-71
2024/01/14 00:28:27;;;;;;;54.22;21.73;;;;;;;-2.63;100.00;96703.75;4977414;28;20124;-72
2024/01/14 00:30:53;;;;;;;54.78;21.48;;;;;;;-2.67;100.00;96699.22;4981558;28;20088;-71
2024/01/14 00:33:18;;;;;;;54.88;21.17;;;;;;;-2.71;100.00;96705.13;4976989;28;20043;-70
2024/01/14 00:35:43;;;;;;;53.17;22.00;;;;;;;-2.65;100.00;96694.38;4981138;28;20038;-71
2024/01/14 00:38:09;;;;;;;48.40;21.23;;;;;;;-2.65;100.00;96686.31;4977583;28;20159;-70
2024/01/14 00:40:34;;;;;;;56.42;22.73;;;;;;;-2.61;100.00;96693.53;4980495;28;20133;-71
2024/01/14 00:43:00;;;;;;;55.33;23.02;;;;;;;-2.88;100.00;96683.31;4988208;28;20039;-71
2024/01/14 00:45:26;;;;;;;49.17;20.75;;;;;;;-2.62;100.00;96677.72;4976514;28;20561;-70
2024/01/14 00:47:51;;;;;;;54.65;23.30;;;;;;;-2.65;100.00;96672.91;4968046;28;20431;-71
2024/01/14 00:50:17;;;;;;;53.55;22.45;;;;;;;-2.59;100.00;96674.47;4969398;28;20137;-71
2024/01/14 00:52:42;;;;;;;51.92;23.33;;;;;;;-2.65;100.00;96668.34;4980373;28;20046;-71
2024/01/14 00:55:09;;;;;;;57.13;23.13;;;;;;;-2.76;100.00;96669.53;4974673;28;20564;-71
2024/01/14 00:57:34;;;;;;;51.25;21.92;;;;;;;-2.70;100.00;96660.38;4981686;28;20627;-71
2024/01/14 01:00:01;;;;;;;51.38;21.98;;;;;;;-2.64;100.00;96655.75;4980856;28;20046;-70
2024/01/14 01:02:26;;;;;;;53.28;22.70;;;;;;;-2.84;100.00;96640.66;4976913;28;20517;-70
2024/01/14 01:04:51;;;;;;;56.28;23.13;;;;;;;-2.91;100.00;96641.78;4978893;28;20076;-71
2024/01/14 01:07:17;;;;;;;55.97;24.58;;;;;;;-2.91;100.00;96640.97;4976274;28;20456;-71
2024/01/14 01:09:42;;;;;;;54.83;22.10;;;;;;;-3.05;100.00;96648.84;4980983;28;20050;-70
2024/01/14 01:12:08;;;;;;;57.13;23.40;;;;;;;-3.09;100.00;96653.97;4976563;28;20065;-70
2024/01/14 01:14:33;;;;;;;55.60;23.33;;;;;;;-2.80;100.00;96647.84;4980386;28;20424;-70
2024/01/14 01:16:59;;;;;;;55.63;22.35;;;;;;;-2.78;100.00;96640.31;4978969;28;20129;-71
2024/01/14 01:19:24;;;;;;;56.20;23.08;;;;;;;-2.94;100.00;96639.66;4974454;28;20525;-72
2024/01/14 01:21:49;;;;;;;55.35;23.25;;;;;;;-2.86;100.00;96648.97;4982705;28;20034;-72
2024/01/14 01:24:15;;;;;;;55.13;22.88;;;;;;;-2.80;100.00;96634.44;4985829;28;20121;-71
2024/01/14 01:26:40;;;;;;;50.15;22.33;;;;;;;-2.69;100.00;96633.25;4982592;28;20074;-71
2024/01/14 01:29:06;;;;;;;54.97;22.35;;;;;;;-2.69;100.00;96638.63;4976510;28;20441;-72
2024/01/14 01:31:31;;;;;;;54.67;23.30;;;;;;;-2.83;100.00;96643.03;4978734;28;20501;-72
2024/01/14 01:33:56;;;;;;;57.40;23.13;;;;;;;-2.88;100.00;96635.84;4981460;28;20046;-72
2024/01/14 01:36:22;;;;;;;57.72;23.02;;;;;;;-2.99;100.00;96641.56;4978332;28;20164;-72
2024/01/14 01:38:48;;;;;;;56.08;24.05;;;;;;;-3.01;100.00;96636.50;4979388;28;20367;-72
2024/01/14 01:41:13;;;;;;;61.42;25.92;;;;;;;-3.12;100.00;96630.41;4982444;28;20046;-72
2024/01/14 01:43:39;;;;;;;60.05;24.10;;;;;;;-3.03;100.00;96624.47;4983918;28;20046;-71
2024/01/14 01:46:06;;;;;;;58.03;23.67;;;;;;;-3.15;100.00;96627.50;4975039;28;20042;-71
2024/01/14 01:48:33;;;;;;;59.08;23.63;;;;;;;-3.24;100.00;96626.50;4977771;28;20046;-70
2024/01/14 01:50:59;;;;;;;55.42;23.83;;;;;;;-2.99;100.00;96631.69;4978759;28;20044;-72
2024/01/14 01:53:25;;;;;;;59.28;23.17;;;;;;;-3.01;100.00;96622.31;4975729;28;20133;-72
2024/01/14 01:55:52;;;;;;;54.72;23.23;;;;;;;-2.78;100.00;96620.75;4979096;28;20049;-71
2024/01/14 01:58:18;;;;;;;56.83;23.30;;;;;;;-2.97;100.00;96621.47;4973534;28;20035;-73
2024/01/14 02:00:44;;;;;;;51.58;22.20;;;;;;;-2.92;100.00;96613.38;4980022;28;20042;-71
2024/01/14 02:03:11;;;;;;;55.20;22.83;;;;;;;-2.85;100.00;96612.25;4975586;28;20034;-71
2024/01/14 02:05:40;;;;;;;62.22;24.13;;;;;;;-2.85;100.00;96613.03;4977907;28;20073;-72
2024/01/14 02:08:06;;;;;;;62.67;24.63;;;;;;;-2.87;100.00;96612.53;4974931;28;20484;-71
2024/01/14 02:10:31;;;;;;;59.15;22.58;;;;;;;-2.83;100.00;96610.09;4980744;28;20042;-72
2024/01/14 02:12:57;;;;;;;56.95;23.15;;;;;;;-2.91;100.00;96606.13;4980202;28;20061;-72
2024/01/14 02:15:22;;;;;;;52.67;22.98;;;;;;;-2.98;100.00;96601.09;4975237;28;20515;-71
2024/01/14 02:17:47;;;;;;;53.30;22.33;;;;;;;-3.11;100.00;96591.84;4979653;28;20066;-72
2024/01/14 02:20:14;;;;;;;61.25;24.88;;;;;;;-2.94;100.00;96590.63;4974518;28;20038;-72
2024/01/14 02:22:41;;;;;;;58.22;22.45;;;;;;;-2.90;100.00;96588.97;4979691;28;20404;-72
2024/01/14 02:25:07;;;;;;;55.30;22.92;;;;;;;-2.92;100.00;96588.44;4975179;28;20050;-72
2024/01/14 02:27:33;;;;;;;48.67;22.38;;;;;;;-2.83;100.00;96583.28;4980776;28;20053;-72
2024/01/14 02:30:00;;;;;;;52.47;22.33;;;;;;;-2.80;100.00;96580.84;4980566;28;20035;-71
2024/01/14 02:32:25;;;;;;;53.75;22.80;;;;;;;-2.93;100.00;96579.63;4974917;28;20139;-72
2024/01/14 02:34:51;;;;;;;51.85;22.65;;;;;;;-2.99;100.00;96580.75;4980042;28;20038;-71
2024/01/14 02:37:16;;;;;;;55.65;22.38;;;;;;;-2.85;100.00;96575.50;4974811;28;20043;-71
2024/01/14 02:39:42;;;;;;;53.10;22.35;;;;;;;-2.99;100.00;96579.94;4982841;28;20544;-72
2024/01/14 02:42:07;;;;;;;58.30;22.73;;;;;;;-2.93;100.00;96568.09;4976490;28;20045;-70
2024/01/14 02:44:33;;;;;;;57.80;22.75;;;;;;;-2.82;100.00;96566.13;4993929;28;20042;-71
2024/01/14 02:46:58;;;;;;;59.28;22.48;;;;;;;-2.73;100.00;96561.75;4978241;28;20464;-72
2024/01/14 02:49:24;;;;;;;55.22;22.85;;;;;;;-2.76;100.00;96556.94;4974294;28;20042;-72
2024/01/14 02:51:49;;;;;;;50.58;22.00;;;;;;;-2.82;100.00;96560.75;4979882;28;20537;-72
2024/01/14 02:54:14;;;;;;;56.03;24.83;;;;;;;-3.01;100.00;96558.78;4974957;28;20116;-71
2024/01/14 02:56:40;;;;;;;57.15;23.15;;;;;;;-2.93;100.00;96570.78;4978811;28;20046;-71
2024/01/14 02:59:05;;;;;;;60.42;24.75;;;;;;;-3.07;100.00;96567.97;4975606;28;20074;-71
2024/01/14 03:01:30;;;;;;;59.45;23.15;;;;;;;-2.97;100.00;96565.19;4982990;28;20054;-72
2024/01/14 03:03:56;;;;;;;58.08;23.15;;;;;;;-2.96;100.00;96563.31;4975280;28;20042;-72
2024/01/14 03:06:21;;;;;;;63.45;24.17;;;;;;;-2.90;100.00;96560.31;4977544;28;20136;-73
2024/01/14 03:08:47;;;;;;;59.25;24.55;;;;;;;-2.80;100.00;96554.03;4978399;28;20050;-72
2024/01/14 03:11:12;;;;;;;54.80;23.30;;;;;;;-2.85;100.00;96554.06;4974376;28;20085;-71
2024/01/14 03:13:38;;;;;;;53.42;23.88;;;;;;;-2.87;100.00;96553.56;4978773;28;20066;-71
2024/01/14 03:16:03;;;;;;;57.28;24.23;;;;;;;-2.90;100.00;96546.91;4975767;28;20607;-70
2024/01/14 03:18:29;;;;;;;57.50;24.70;;;;;;;-2.81;100.00;96549.75;4979954;28;20061;-72
2024/01/14 03:20:54;;;;;;;54.15;22.83;;;;;;;-2.77;100.00;96548.09;4978832;28;20038;-71
2024/01/14 03:23:19;;;;;;;58.65;25.42;;;;;;;-2.88;100.00;96549.31;4974971;28;20710;-72
2024/01/14 03:25:45;;;;;;;63.95;25.80;;;;;;;-3.05;100.00;96540.88;4979139;28;20131;-71
2024/01/14 03:28:10;;;;;;;58.78;23.67;;;;;;;-3.05;100.00;96532.84;4974841;28;20043;-71
2024/01/14 03:30:36;;;;;;;60.75;24.95;;;;;;;-3.05;100.00;96533.63;4981946;28;20050;-74
2024/01/14 03:33:01;;;;;;;54.92;24.13;;;;;;;-3.05;100.00;96530.16;4998135;28;20054;-72
2024/01/14 03:35:26;;;;;;;66.13;25.08;;;;;;;-2.92;100.00;96538.34;4978147;28;20137;-71
2024/01/14 03:37:52;;;;;;;55.90;23.65;;;;;;;-2.86;100.00;96535.59;4982718;28;20054;-76
2024/01/14 03:40:17;;;;;;;59.22;24.83;;;;;;;-2.94;100.00;96529.78;4982042;28;20038;-72
2024/01/14 03:42:43;;;;;;;56.58;23.50;;;;;;;-2.97;100.00;96535.72;4978307;28;20038;-72
2024/01/14 03:45:08;;;;;;;62.50;25.45;;;;;;;-2.63;100.00;96531.31;4977826;28;20042;-72
2024/01/14 03:47:34;;;;;;;57.80;23.67;;;;;;;-2.75;100.00;96524.50;4981302;28;20046;-72
2024/01/14 03:49:59;;;;;;;55.22;23.83;;;;;;;-2.69;100.00;96517.97;4980598;28;20045;-72
2024/01/14 03:52:25;;;;;;;59.53;24.42;;;;;;;-2.95;100.00;96512.09;4976433;28;20490;-71
2024/01/14 03:54:51;;;;;;;58.35;22.70;;;;;;;-2.88;100.00;96517.13;4984411;28;20050;-73
2024/01/14 03:57:17;;;;;;;55.35;23.50;;;;;;;-2.79;100.00;96506.56;4983366;28;20093;-72
2024/01/14 03:59:42;;;;;;;56.15;23.50;;;;;;;-2.85;100.00;96502.34;4982173;28;20046;-73
2024/01/14 04:02:08;;;;;;;54.83;24.05;;;;;;;-3.01;100.00;96512.44;4973972;28;20401;-74
2024/01/14 04:04:33;;;;;;;58.38;24.67;;;;;;;-3.03;100.00;96495.84;4981656;28;20046;-73
2024/01/14 04:06:59;;;;;;;56.95;23.20;;;;;;;-2.94;100.00;96500.28;4983552;28;20042;-72
2024/01/14 04:09:24;;;;;;;55.90;22.50;;;;;;;-2.85;100.00;96505.81;4978927;28;20441;-72
2024/01/14 04:11:50;;;;;;;62.95;25.02;;;;;;;-3.00;100.00;96496.06;4964528;28;20052;-73
2024/01/14 04:14:16;;;;;;;65.50;24.60;;;;;;;-3.02;100.00;96497.44;4975998;28;20038;-73
2024/01/14 04:16:42;;;;;;;59.58;24.75;;;;;;;-2.89;100.00;96492.19;4982469;28;20093;-73
2024/01/14 04:19:08;;;;;;;57.33;24.23;;;;;;;-2.81;100.00;96492.66;4978362;28;20152;-72
2024/01/14 04:21:34;;;;;;;58.33;23.83;;;;;;;-2.92;100.00;96491.97;4981109;28;20042;-73
2024/01/14 04:23:59;;;;;;;60.75;23.38;;;;;;;-2.91;100.00;96485.53;4972829;28;20045;-73
2024/01/14 04:26:25;;;;;;;55.70;23.75;;;;;;;-3.01;100.00;96485.63;4978123;28;20552;-73
2024/01/14 04:28:52;;;;;;;59.40;23.80;;;;;;;-3.05;100.00;96487.28;4982390;28;20050;-73
2024/01/14 04:31:18;;;;;;;55.92;23.73;;;;;;;-3.27;100.00;96483.22;4977998;28;20030;-72
2024/01/14 04:33:44;;;;;;;57.13;24.30;;;;;;;-3.41;100.00;96484.97;4981312;28;20121;-72
2024/01/14 04:36:09;;;;;;;54.35;22.90;;;;;;;-3.24;100.00;96482.66;4977464;28;20551;-72
2024/01/14 04:38:35;;;;;;;58.65;23.27;;;;;;;-3.23;100.00;96475.41;4983244;28;20096;-72
2024/01/14 04:41:01;;;;;;;57.97;23.40;;;;;;;-3.08;100.00;96472.56;4986055;28;20129;-72
2024/01/14 04:43:26;;;;;;;58.03;23.83;;;;;;;-3.32;100.00;96470.66;4976683;28;20073;-72
2024/01/14 04:45:51;;;;;;;57.70;24.83;;;;;;;-3.37;100.00;96473.38;4983331;28;20382;-72
2024/01/14 04:48:17;;;;;;;58.60;23.92;;;;;;;-3.11;100.00;96473.16;4977426;28;20097;-73
2024/01/14 04:50:42;;;;;;;59.85;25.70;;;;;;;-3.11;100.00;96467.81;4981438;28;20050;-73
2024/01/14 04:53:08;;;;;;;56.33;23.88;;;;;;;-3.15;100.00;96475.59;4977349;28;20422;-73
2024/01/14 04:55:35;;;;;;;54.40;23.98;;;;;;;-3.07;100.00;96477.66;4982189;28;20081;-72
2024/01/14 04:58:00;;;;;;;63.92;24.33;;;;;;;-3.31;100.00;96463.44;4981203;28;20446;-73
2024/01/14 05:00:26;;;;;;;59.22;23.42;;;;;;;-3.44;100.00;96466.78;4997251;28;20046;-71
2024/01/14 05:02:51;;;;;;;56.63;22.55;;;;;;;-3.47;100.00;96463.59;4995305;28;20031;-73
2024/01/14 05:05:17;;;;;;;54.20;21.38;;;;;;;-3.38;100.00;96463.78;4975538;28;20050;-71
2024/01/14 05:07:42;;;;;;;53.08;22.73;;;;;;;-3.47;100.00;96465.47;4980564;28;20121;-72
2024/01/14 05:10:08;;;;;;;60.67;23.52;;;;;;;-3.52;100.00;96460.94;4975686;28;20041;-71
2024/01/14 05:12:34;;;;;;;55.47;23.33;;;;;;;-3.47;100.00;96449.41;4987544;28;20106;-71
2024/01/14 05:15:00;;;;;;;57.65;23.05;;;;;;;-3.44;100.00;96456.84;4978437;28;20038;-72
2024/01/14 05:17:25;;;;;;;52.60;21.13;;;;;;;-3.66;100.00;96451.97;4959087;28;21070;-71
2024/01/14 05:19:51;;;;;;;56.90;22.33;;;;;;;-3.57;100.00;96463.66;4977369;28;20050;-71
2024/01/14 05:22:17;;;;;;;51.90;21.83;;;;;;;-3.44;100.00;96464.09;4973979;28;20038;-71
2024/01/14 05:24:43;;;;;;;51.92;21.88;;;;;;;-3.39;100.00;96456.81;4978159;28;20568;-71
2024/01/14 05:27:10;;;;;;;52.97;21.10;;;;;;;-3.48;100.00;96447.78;4974144;28;20521;-72
2024/01/14 05:29:39;;;;;;;55.03;21.08;;;;;;;-3.52;100.00;96444.88;4980189;28;20068;-71
2024/01/14 05:32:05;;;;;;;55.60;23.05;;;;;;;-3.69;100.00;96439.13;4983124;28;20716;-71
2024/01/14 05:34:30;;;;;;;52.35;21.02;;;;;;;-3.68;100.00;96452.25;4962201;28;20125;-72
2024/01/14 05:36:56;;;;;;;54.08;22.88;;;;;;;-3.75;100.00;96445.63;4981148;28;20061;-71
2024/01/14 05:39:21;;;;;;;56.45;22.45;;;;;;;-3.70;100.00;96446.38;4984317;28;21010;-71
2024/01/14 05:41:46;;;;;;;57.35;22.13;;;;;;;-3.55;100.00;96447.31;4983750;28;20146;-72
2024/01/14 05:44:12;;;;;;;55.53;22.73;;;;;;;-3.46;100.00;96443.78;4978753;28;20049;-71
2024/01/14 05:46:37;;;;;;;51.20;21.13;;;;;;;-3.52;100.00;96441.41;4985619;28;20144;-71
2024/01/14 05:49:03;;;;;;;52.13;22.02;;;;;;;-3.56;100.00;96443.06;4983965;28;20100;-71
2024/01/14 05:51:28;;;;;;;53.22;21.65;;;;;;;-3.65;100.00;96440.19;4987780;28;20042;-72
2024/01/14 05:53:54;;;;;;;61.88;23.73;;;;;;;-3.68;100.00;96440.75;4983173;28;20046;-72
2024/01/14 05:56:26;;;;;;;50.75;22.13;;;;;;;-3.62;100.00;96439.63;4958750;28;20513;-70
2024/01/14 05:58:52;;;;;;;54.35;22.88;;;;;;;-3.53;100.00;96445.16;4981846;28;20042;-72
2024/01/14 06:01:17;;;;;;;56.65;22.52;;;;;;;-3.74;100.00;96440.00;4977453;28;20045;-72
2024/01/14 06:03:42;;;;;;;51.15;20.88;;;;;;;-3.57;100.00;96442.25;4979118;28;20045;-74
2024/01/14 06:06:08;;;;;;;50.47;21.42;;;;;;;-3.67;100.00;96439.69;4972768;28;20030;-74
2024/01/14 06:08:33;;;;;;;50.80;21.05;;;;;;;-3.57;100.00;96447.59;4980004;28;20061;-73
2024/01/14 06:11:01;;;;;;;48.70;21.50;;;;;;;-3.55;100.00;96445.44;4979915;28;20074;-71
2024/01/14 06:13:27;;;;;;;53.08;21.17;;;;;;;-3.47;100.00;96444.06;4959710;28;20137;-68
2024/01/14 06:15:52;;;;;;;53.88;20.95;;;;;;;-3.48;100.00;96450.47;4982090;28;20134;-69
2024/01/14 06:18:18;;;;;;;59.25;21.05;;;;;;;-3.55;100.00;96445.44;4975076;28;20041;-69
2024/01/14 06:20:43;;;;;;;46.80;19.75;;;;;;;-3.55;100.00;96447.31;4963578;28;20134;-71
2024/01/14 06:23:09;;;;;;;48.45;21.58;;;;;;;-3.50;100.00;96448.06;4975930;28;20030;-72
2024/01/14 06:25:34;;;;;;;52.40;20.92;;;;;;;-3.62;100.00;96447.66;4969196;28;20054;-72
2024/01/14 06:28:01;;;;;;;52.95;20.27;;;;;;;-3.65;100.00;96445.56;4992492;28;20604;-71
2024/01/14 06:30:26;;;;;;;50.60;23.15;;;;;;;-3.47;100.00;96444.06;4977805;28;20591;-74
2024/01/14 06:32:55;;;;;;;52.60;21.27;;;;;;;-3.62;100.00;96442.28;4990533;28;20035;-71
2024/01/14 06:35:21;;;;;;;54.65;22.13;;;;;;;-3.52;100.00;96452.91;4991898;28;20054;-72
2024/01/14 06:37:47;;;;;;;54.42;22.98;;;;;;;-3.55;100.00;96444.66;4993897;28;20050;-72
2024/01/14 06:40:13;;;;;;;51.58;21.42;;;;;;;-3.33;100.00;96438.81;4980642;28;20277;-71
2024/01/14 06:42:38;;;;;;;52.40;20.92;;;;;;;-3.33;100.00;96442.31;4982839;28;20412;-70
2024/01/14 06:45:04;;;;;;;52.47;21.35;;;;;;;-3.36;100.00;96440.19;4978580;28;20042;-69
2024/01/14 06:47:30;;;;;;;54.88;22.50;;;;;;;-3.27;100.00;96437.69;4980785;28;20047;-71
2024/01/14 06:49:55;;;;;;;52.67;22.33;;;;;;;-3.33;100.00;96428.09;4981383;28;20045;-71
2024/01/14 06:52:22;;;;;;;53.15;20.92;;;;;;;-3.22;100.00;96429.59;4976273;28;20030;-71
2024/01/14 06:54:49;;;;;;;49.60;21.92;;;;;;;-3.22;100.00;96428.78;4980444;28;20039;-71
2024/01/14 06:57:14;;;;;;;52.45;21.40;;;;;;;-3.23;100.00;96425.31;4960291;28;20585;-72
2024/01/14 06:59:42;;;;;;;50.40;21.02;;;;;;;-3.31;100.00;96425.97;4991351;28;20034;-71
2024/01/14 07:02:08;;;;;;;51.47;21.42;;;;;;;-3.13;100.00;96421.75;4962158;28;20042;-71
2024/01/14 07:04:34;;;;;;;53.13;21.13;;;;;;;-3.20;100.00;96424.75;4984672;28;20038;-70
2024/01/14 07:06:59;;;;;;;51.15;20.77;;;;;;;-3.14;100.00;96418.25;4985350;28;20618;-72
2024/01/14 07:09:25;;;;;;;56.65;21.77;;;;;;;-3.20;100.00;96424.75;4979827;28;20042;-71
2024/01/14 07:11:50;;;;;;;44.38;19.73;;;;;;;-3.20;100.00;96422.06;4967735;28;20042;-72
2024/01/14 07:14:15;;;;;;;47.92;19.95;;;;;;;-3.16;100.00;96419.63;4964642;28;20039;-72
2024/01/14 07:16:41;;;;;;;49.40;20.55;;;;;;;-3.02;100.00;96419.75;4991723;28;20046;-72
2024/01/14 07:19:06;;;;;;;54.35;22.30;;;;;;;-3.06;100.00;96422.19;4980067;28;20062;-72
2024/01/14 07:21:32;;;;;;;50.45;20.08;;;;;;;-3.08;100.00;96422.47;4984057;28;20046;-72
2024/01/14 07:23:57;;;;;;;52.17;21.60;;;;;;;-3.03;100.00;96426.19;4995137;28;20050;-72
2024/01/14 07:26:23;;;;;;;46.42;20.58;;;;;;;-3.04;100.00;96416.53;4971357;28;20101;-72
2024/01/14 07:28:48;;;;;;;47.28;20.42;;;;;;;-2.98;100.00;96421.56;4984130;28;20046;-72
2024/01/14 07:31:20;;;;;;;47.17;21.35;;;;;;;-3.07;100.00;96420.59;4980135;28;20584;-71
2024/01/14 07:33:52;;;;;;;54.05;21.90;;;;;;;-3.03;100.00;96418.94;4976168;28;20528;-70
2024/01/14 07:36:18;;;;;;;55.88;23.30;;;;;;;-3.07;100.00;96424.06;4990476;28;20080;-68
2024/01/14 07:38:44;;;;;;;51.75;22.80;;;;;;;-2.98;100.00;96418.09;4997798;28;20046;-71
2024/01/14 07:41:12;;;;;;;54.00;21.75;;;;;;;-2.91;100.00;96413.19;4992211;28;20303;-70
2024/01/14 07:43:38;;;;;;;49.55;21.05;;;;;;;-2.81;100.00;96417.59;4991044;28;20046;-71
2024/01/14 07:46:05;;;;;;;49.08;22.00;;;;;;;-2.95;100.00;96412.16;4967907;28;20041;-70
2024/01/14 07:48:31;;;;;;;46.00;20.77;;;;;;;-2.76;100.00;96412.97;4970660;28;20045;-71
2024/01/14 07:50:56;;;;;;;53.55;22.50;;;;;;;-2.69;100.00;96416.09;4999662;28;20422;-71
2024/01/14 07:53:22;;;;;;;53.58;21.58;;;;;;;-2.61;100.00;96416.53;4980562;28;20089;-71
2024/01/14 07:55:47;;;;;;;48.35;21.55;;;;;;;-2.71;100.00;96420.94;4988961;28;20042;-70
2024/01/14 07:58:13;;;;;;;52.38;21.17;;;;;;;-2.59;100.00;96411.69;4965690;28;20041;-71
2024/01/14 08:00:38;;;;;;;44.28;18.05;;;;;;;-2.83;100.00;96411.72;4985059;28;20042;-71
2024/01/14 08:03:04;;;;;;;45.35;20.27;;;;;;;-2.66;100.00;96413.94;4980904;28;20040;-69
2024/01/14 08:05:30;;;;;;;44.33;20.23;;;;;;;-2.65;100.00;96416.31;4986588;28;20042;-72
2024/01/14 08:07:55;;;;;;;39.47;18.40;;;;;;;-2.66;100.00;96413.94;4971750;28;20039;-71
2024/01/14 08:10:21;;;;;;;43.88;19.38;;;;;;;-2.74;100.00;96416.19;4980045;28;20521;-71
2024/01/14 08:12:47;;;;;;;50.88;19.77;;;;;;;-3.16;100.00;96416.94;4984141;28;20192;-71
2024/01/14 08:15:14;;;;;;;50.78;21.30;;;;;;;-3.23;100.00;96416.50;4978961;28;20057;-71
2024/01/14 08:17:40;;;;;;;46.80;20.20;;;;;;;-3.09;100.00;96415.50;4984102;28;20046;-72
2024/01/14 08:20:08;;;;;;;47.95;21.77;;;;;;;-3.10;100.00;96416.63;4980347;28;20128;-71
2024/01/14 08:22:33;;;;;;;47.75;21.15;;;;;;;-2.95;100.00;96415.63;4967697;28;20042;-71
2024/01/14 08:24:59;;;;;;;51.67;20.77;;;;;;;-2.83;100.00;96414.41;4985933;28;20052;-71
2024/01/14 08:27:24;;;;;;;49.75;19.75;;;;;;;-2.57;100.00;96414.91;4963191;28;20065;-71
2024/01/14 08:29:49;;;;;;;49.63;20.77;;;;;;;-2.38;100.00;96412.22;4968088;28;20744;-71
2024/01/14 08:32:15;;;;;;;48.80;20.42;;;;;;;-2.38;100.00;96417.56;4983270;28;20084;-72
2024/01/14 08:34:40;;;;;;;49.90;20.95;;;;;;;-2.17;100.00;96413.50;4983023;28;20042;-70
2024/01/14 08:37:06;;;;;;;41.83;18.75;;;;;;;-2.12;100.00;96418.00;4997014;28;20055;-71
2024/01/14 08:39:31;;;;;;;45.42;19.85;;;;;;;-2.11;100.00;96411.53;4997732;28;20130;-71
2024/01/14 08:41:57;;;;;;;49.45;21.85;;;;;;;-2.14;100.00;96410.25;4996781;28;20081;-71
2024/01/14 08:44:22;;;;;;;48.40;21.27;;;;;;;-2.15;100.00;96407.84;4981857;28;20065;-71
2024/01/14 08:46:48;;;;;;;57.90;22.23;;;;;;;-2.07;100.00;96406.38;4983874;28;20042;-71
2024/01/14 08:49:14;;;;;;;57.33;23.00;;;;;;;-2.05;100.00;96407.72;4978311;28;20068;-71
2024/01/14 08:51:40;;;;;;;52.65;22.65;;;;;;;-1.96;100.00;96408.63;4968008;28;20096;-73
2024/01/14 08:54:06;;;;;;;49.72;21.05;;;;;;;-1.93;100.00;96410.75;4980651;28;20046;-72
2024/01/14 08:56:32;;;;;;;44.70;19.40;;;;;;;-2.02;100.00;96415.16;4997808;28;20058;-71
2024/01/14 08:58:58;;;;;;;45.30;19.25;;;;;;;-2.36;100.00;96415.41;4990616;28;20529;-72
2024/01/14 09:01:24;;;;;;;47.67;19.48;;;;;;;-2.65;100.00;96415.53;4992872;28;20498;-72
2024/01/14 09:03:49;;;;;;;45.78;20.13;;;;;;;-2.69;100.00;96401.91;4996448;28;20050;-72
2024/01/14 09:06:16;;;;;;;48.47;19.75;;;;;;;-2.48;100.00;96404.28;4979140;28;20038;-71
2024/01/14 09:08:41;;;;;;;43.90;19.85;;;;;;;-2.34;100.00;96403.31;4986359;28;20082;-71
2024/01/14 09:11:07;;;;;;;45.72;19.13;;;;;;;-2.17;100.00;96397.41;4980368;28;20089;-72
2024/01/14 09:13:33;;;;;;;48.65;21.20;;;;;;;-1.99;100.00;96401.16;4993540;28;20046;-72
2024/01/14 09:15:59;;;;;;;44.42;19.67;;;;;;;-1.79;100.00;96401.91;5000005;28;20042;-72
2024/01/14 09:18:25;;;;;;;45.13;20.15;;;;;;;-1.66;100.00;96403.84;4997719;28;20146;-71
2024/01/14 09:20:51;;;;;;;40.60;18.60;;;;;;;-1.75;100.00;96408.28;4993437;28;20049;-72
2024/01/14 09:23:16;;;;;;;46.55;19.88;;;;;;;-1.73;100.00;96404.22;4981570;28;20062;-72
2024/01/14 09:25:41;;;;;;;43.17;17.95;;;;;;;-1.54;100.00;96403.38;4985199;28;20042;-72
2024/01/14 09:28:07;;;;;;;47.75;18.70;;;;;;;-1.50;100.00;96404.38;4978912;28;20050;-71
2024/01/14 09:30:32;;;;;;;46.38;19.27;;;;;;;-1.70;100.00;96402.84;4983839;28;20050;-73
2024/01/14 09:32:58;;;;;;;42.10;18.60;;;;;;;-1.83;100.00;96399.03;4988910;28;20042;-72
2024/01/14 09:35:24;;;;;;;49.55;18.92;;;;;;;-1.54;100.00;96406.06;4993630;28;20042;-72
2024/01/14 09:37:50;;;;;;;46.03;19.63;;;;;;;-1.47;100.00;96398.41;4995173;28;20109;-73
2024/01/14 09:40:16;;;;;;;44.53;18.65;;;;;;;-1.53;100.00;96383.50;4985788;28;20034;-73
2024/01/14 09:42:44;;;;;;;45.83;21.85;;;;;;;-1.37;100.00;96392.03;4982238;28;20045;-72
2024/01/14 09:45:10;;;;;;;45.50;18.55;;;;;;;-1.39;100.00;96386.19;4980325;28;20057;-71
2024/01/14 09:47:37;;;;;;;48.30;19.35;;;;;;;-1.44;100.00;96384.41;4984470;28;20383;-73
2024/01/14 09:50:04;;;;;;;42.58;19.20;;;;;;;-1.39;100.00;96388.88;4982356;28;20149;-71
2024/01/14 09:52:33;;;;;;;46.20;18.02;;;;;;;-1.23;100.00;96389.38;4984698;28;20049;-72
2024/01/14 09:54:58;;;;;;;43.43;18.50;;;;;;;-1.25;100.00;96381.59;4985193;28;20069;-72
2024/01/14 09:57:25;;;;;;;47.95;20.65;;;;;;;-1.42;100.00;96379.53;4962963;28;20738;-71
2024/01/14 09:59:51;;;;;;;46.42;19.38;;;;;;;-1.12;100.00;96374.63;4993627;28;20048;-71
2024/01/14 10:02:17;;;;;;;41.50;18.08;;;;;;;-1.24;100.00;96377.84;4979484;28;20102;-71
2024/01/14 10:04:43;;;;;;;42.40;18.60;;;;;;;-1.17;100.00;96380.09;4982860;28;20125;-71
2024/01/14 10:07:09;;;;;;;58.05;18.17;;;;;;;-0.77;100.00;96366.97;4961279;28;20066;-72
2024/01/14 10:09:36;;;;;;;45.95;19.08;;;;;;;-0.17;100.00;96368.59;4982288;28;20066;-72
2024/01/14 10:12:02;;;;;;;41.55;18.17;;;;;;;-0.05;100.00;96360.75;4993525;28;20061;-71
2024/01/14 10:14:28;;;;;;;50.35;21.50;;;;;;;-0.26;100.00;96359.66;4982393;28;20043;-72
2024/01/14 10:16:59;;;;;;;45.92;20.75;;;;;;;0.40;100.00;96351.84;4984389;28;20610;-71
2024/01/14 10:19:25;;;;;;;39.70;17.33;;;;;;;0.35;100.00;96344.69;4979286;28;20092;-71
2024/01/14 10:21:54;;;;;;;40.10;17.92;;;;;;;1.60;100.00;96343.59;4983757;28;20432;-71
2024/01/14 10:24:23;;;;;;;35.92;15.35;;;;;;;2.32;100.00;96346.72;4978716;28;20034;-72
2024/01/14 10:26:53;;;;;;;34.97;15.85;;;;;;;2.83;89.94;96349.59;4984542;28;20501;-71
2024/01/14 10:29:19;;;;;;;36.90;14.45;;;;;;;3.60;85.91;96344.03;4979323;28;20596;-71
2024/01/14 10:31:44;;;;;;;35.08;16.00;;;;;;;4.30;81.53;96336.09;4982780;28;20127;-71
2024/01/14 10:34:10;;;;;;;35.40;16.45;;;;;;;4.21;81.44;96333.50;4988354;28;20061;-71
2024/01/14 10:36:37;;;;;;;30.60;14.57;;;;;;;4.78;73.84;96323.75;4993112;28;20058;-71
2024/01/14 10:39:04;;;;;;;41.90;16.73;;;;;;;4.93;70.25;96316.88;4960991;28;20082;-71
2024/01/14 10:41:29;;;;;;;41.20;17.65;;;;;;;4.70;71.94;96321.16;4986933;28;20042;-72
2024/01/14 10:43:55;;;;;;;31.83;15.63;;;;;;;4.95;69.41;96308.38;4985807;28;20049;-72
2024/01/14 10:46:22;;;;;;;36.35;16.80;;;;;;;4.62;71.50;96305.78;4985322;28;20077;-72
2024/01/14 10:49:03;;;;;;;38.20;15.75;;;;;;;4.54;69.28;96305.53;4987880;28;20042;-71
2024/01/14 10:51:31;;;;;;;36.28;16.60;;;;;;;4.82;69.92;96296.75;5000653;28;20030;-71
2024/01/14 10:53:59;;;;;;;30.92;15.75;;;;;;;4.67;69.53;96292.78;4998449;28;20054;-72
2024/01/14 10:56:39;;;;;;;32.05;16.30;;;;;;;4.58;70.28;96290.16;4983675;28;20077;-72
2024/01/14 10:59:07;;;;;;;35.50;17.30;;;;;;;3.82;74.65;96280.63;4972803;28;20043;-70
2024/01/14 11:01:42;;;;;;;39.97;16.30;;;;;;;4.72;69.83;96283.66;4997344;28;20038;-72
2024/01/14 11:04:08;;;;;;;33.83;17.25;;;;;;;1.74;87.40;96262.44;4966196;28;20078;-71